createdAt,value
2018-04-15T00:02:13.854Z,12.53
2018-04-15T00:04:41.428Z,15.00
2018-04-15T00:07:09.135Z,14.53
2018-04-15T00:09:36.752Z,14.47
2018-04-15T00:12:04.337Z,13.67
2018-04-15T00:14:31.911Z,14.73
2018-04-15T00:16:59.643Z,13.80
2018-04-15T00:19:27.204Z,15.80
2018-04-15T00:21:54.776Z,15.20
2018-04-15T00:24:22.347Z,15.47
2018-04-15T00:26:50.117Z,14.73
2018-04-15T00:29:17.937Z,14.60
2018-04-15T00:31:45.505Z,14.83
2018-04-15T00:34:13.275Z,14.93
2018-04-15T00:36:40.840Z,14.33
2018-04-15T00:39:08.470Z,15.07
2018-04-15T00:41:36.033Z,15.63
2018-04-15T00:44:03.617Z,15.77
2018-04-15T00:46:31.327Z,14.33
2018-04-15T00:48:59.044Z,14.03
2018-04-15T00:51:26.616Z,14.60
2018-04-15T00:54:05.945Z,13.70
2018-04-15T00:56:33.567Z,14.33
2018-04-15T00:59:01.183Z,14.87
2018-04-15T01:01:28.809Z,14.70
2018-04-15T01:03:56.629Z,14.23
2018-04-15T01:06:24.195Z,14.67
2018-04-15T01:08:51.783Z,14.30
2018-04-15T01:11:19.584Z,14.53
2018-04-15T01:13:47.160Z,14.27
2018-04-15T01:16:14.727Z,13.30
2018-04-15T01:18:42.538Z,13.90
2018-04-15T01:21:10.130Z,14.23
2018-04-15T01:23:37.710Z,13.33
2018-04-15T01:26:05.469Z,14.20
2018-04-15T01:28:33.035Z,13.47
2018-04-15T01:31:00.828Z,14.23
2018-04-15T01:33:28.647Z,12.80
2018-04-15T01:35:56.274Z,14.67
2018-04-15T01:38:23.844Z,14.90
2018-04-15T01:40:51.405Z,14.63
2018-04-15T01:43:18.991Z,14.67
2018-04-15T01:45:46.557Z,14.10
2018-04-15T01:48:14.133Z,14.70
2018-04-15T01:50:41.697Z,12.77
2018-04-15T01:53:09.312Z,12.60
2018-04-15T01:55:36.868Z,13.80
2018-04-15T01:58:04.433Z,14.07
2018-04-15T02:00:32.242Z,14.13
2018-04-15T02:02:59.801Z,13.70
2018-04-15T02:05:27.579Z,15.00
2018-04-15T02:07:55.299Z,13.73
2018-04-15T02:10:22.918Z,14.20
2018-04-15T02:12:50.476Z,13.97
2018-04-15T02:15:18.013Z,15.17
2018-04-15T02:17:45.584Z,13.70
2018-04-15T02:20:13.149Z,14.77
2018-04-15T02:22:40.877Z,15.10
2018-04-15T02:25:08.598Z,14.67
2018-04-15T02:27:36.217Z,15.07
2018-04-15T02:30:03.853Z,14.77
2018-04-15T02:32:31.679Z,15.40
2018-04-15T02:34:59.287Z,14.77
2018-04-15T02:37:26.906Z,15.37
2018-04-15T02:39:54.490Z,15.63
2018-04-15T02:42:22.084Z,14.53
2018-04-15T02:44:49.871Z,15.47
2018-04-15T02:47:17.454Z,15.77
2018-04-15T02:49:45.020Z,14.83
2018-04-15T02:52:12.700Z,15.27
2018-04-15T02:54:40.423Z,14.17
2018-04-15T02:57:08.135Z,14.90
2018-04-15T02:59:35.700Z,17.93
2018-04-15T03:02:03.324Z,14.50
2018-04-15T03:04:30.893Z,15.93
2018-04-15T03:06:58.442Z,14.43
2018-04-15T03:09:26.011Z,12.30
2018-04-15T03:11:53.735Z,11.23
2018-04-15T03:14:22.156Z,11.10
2018-04-15T03:16:49.734Z,9.63
2018-04-15T03:19:17.356Z,10.67
2018-04-15T03:21:44.912Z,14.37
2018-04-15T03:24:12.760Z,14.77
2018-04-15T03:26:40.337Z,13.87
2018-04-15T03:29:07.891Z,14.90
2018-04-15T03:31:35.461Z,13.73
2018-04-15T03:34:03.015Z,14.20
2018-04-15T03:36:30.848Z,13.80
2018-04-15T03:38:58.668Z,13.93
2018-04-15T03:41:26.228Z,14.97
2018-04-15T03:43:54.012Z,14.27
2018-04-15T03:46:21.600Z,13.87
2018-04-15T03:48:49.169Z,13.57
2018-04-15T03:51:16.960Z,13.93
2018-04-15T03:53:44.591Z,14.57
2018-04-15T03:56:12.161Z,12.83
2018-04-15T03:58:39.878Z,11.13
2018-04-15T04:01:07.445Z,9.53
2018-04-15T04:03:35.016Z,10.10
2018-04-15T04:06:02.580Z,11.67
2018-04-15T04:08:30.151Z,10.33
2018-04-15T04:10:57.780Z,11.37
2018-04-15T04:13:25.723Z,11.33
2018-04-15T04:15:53.312Z,14.17
2018-04-15T04:21:39.955Z,13.00
2018-04-15T04:24:19.515Z,13.33
2018-04-15T04:26:47.141Z,13.07
2018-04-15T04:29:14.704Z,13.23
2018-04-15T04:31:42.264Z,11.07
2018-04-15T04:34:10.087Z,12.50
2018-04-15T04:36:37.805Z,12.87
2018-04-15T04:39:06.200Z,13.87
2018-04-15T04:41:33.924Z,14.00
2018-04-15T04:44:01.636Z,13.53
2018-04-15T04:46:29.223Z,14.43
2018-04-15T04:48:56.999Z,14.40
2018-04-15T04:51:24.607Z,14.33
2018-04-15T04:53:52.169Z,13.33
2018-04-15T04:56:19.952Z,12.93
2018-04-15T04:58:47.513Z,12.80
2018-04-15T05:01:15.181Z,11.53
2018-04-15T05:03:42.791Z,10.80
2018-04-15T05:06:10.486Z,10.57
2018-04-15T05:08:38.243Z,8.20
2018-04-15T05:11:05.817Z,9.17
2018-04-15T05:13:33.583Z,8.57
2018-04-15T05:16:01.278Z,7.20
2018-04-15T05:18:28.836Z,8.33
2018-04-15T05:20:56.404Z,9.03
2018-04-15T05:23:23.964Z,8.80
2018-04-15T05:25:52.527Z,9.33
2018-04-15T05:28:20.264Z,9.43
2018-04-15T05:30:47.900Z,8.70
2018-04-15T05:33:15.438Z,9.73
2018-04-15T05:35:43.148Z,10.03
2018-04-15T05:38:10.963Z,9.60
2018-04-15T05:40:38.509Z,8.17
2018-04-15T05:43:06.093Z,9.33
2018-04-15T05:45:33.818Z,12.43
2018-04-15T05:48:01.529Z,10.57
2018-04-15T05:50:29.095Z,10.57
2018-04-15T05:52:56.648Z,9.93
2018-04-15T05:55:24.220Z,8.67
2018-04-15T05:57:51.892Z,7.50
2018-04-15T06:00:19.726Z,7.70
2018-04-15T06:02:47.280Z,7.13
2018-04-15T06:05:14.894Z,7.73
2018-04-15T06:07:42.459Z,7.77
2018-04-15T06:10:10.197Z,7.47
2018-04-15T06:12:37.784Z,8.43
2018-04-15T06:15:05.369Z,8.00
2018-04-15T06:17:33.151Z,7.73
2018-04-15T06:20:00.722Z,7.80
2018-04-15T06:22:28.340Z,7.97
2018-04-15T06:24:55.897Z,6.90
2018-04-15T06:27:23.597Z,7.17
2018-04-15T06:29:51.314Z,7.57
2018-04-15T06:32:19.031Z,7.43
2018-04-15T06:34:46.748Z,7.30
2018-04-15T06:37:14.465Z,6.50
2018-04-15T06:39:42.085Z,6.87
2018-04-15T06:42:09.832Z,7.47
2018-04-15T06:44:37.541Z,6.77
2018-04-15T06:47:05.368Z,7.30
2018-04-15T06:49:32.928Z,7.33
2018-04-15T06:52:00.504Z,6.57
2018-04-15T06:54:28.056Z,7.40
2018-04-15T06:56:55.673Z,6.80
2018-04-15T06:59:23.459Z,7.07
2018-04-15T07:01:51.035Z,6.70
2018-04-15T07:04:18.620Z,6.93
2018-04-15T07:06:46.412Z,6.33
2018-04-15T07:09:14.008Z,6.77
2018-04-15T07:11:41.728Z,7.80
2018-04-15T07:14:09.376Z,7.37
2018-04-15T07:16:36.951Z,6.60
2018-04-15T07:19:04.512Z,7.87
2018-04-15T07:21:32.100Z,8.97
2018-04-15T07:23:59.668Z,7.20
2018-04-15T07:26:27.348Z,6.30
2018-04-15T07:28:54.914Z,6.40
2018-04-15T07:31:22.535Z,6.43
2018-04-15T07:33:50.282Z,7.50
2018-04-15T07:36:17.872Z,7.00
2018-04-15T07:38:45.647Z,7.33
2018-04-15T07:41:13.262Z,5.90
2018-04-15T07:43:41.084Z,5.90
2018-04-15T07:46:08.902Z,6.73
2018-04-15T07:48:36.512Z,6.73
2018-04-15T07:51:04.238Z,7.37
2018-04-15T07:53:31.957Z,5.90
2018-04-15T07:55:59.528Z,6.00
2018-04-15T07:58:27.089Z,6.90
2018-04-15T08:00:54.913Z,7.67
2018-04-15T08:03:22.472Z,7.03
2018-04-15T08:05:50.093Z,5.30
2018-04-15T08:08:17.660Z,6.07
2018-04-15T08:10:45.484Z,6.20
2018-04-15T08:13:13.066Z,5.40
2018-04-15T08:15:40.633Z,5.07
2018-04-15T08:18:08.199Z,5.70
2018-04-15T08:20:35.772Z,6.43
2018-04-15T08:23:03.418Z,5.57
2018-04-15T08:25:31.190Z,4.90
2018-04-15T08:27:58.744Z,4.90
2018-04-15T08:30:26.313Z,5.27
2018-04-15T08:32:53.889Z,5.33
2018-04-15T08:35:21.468Z,4.33
2018-04-15T08:37:49.281Z,5.33
2018-04-15T08:40:17.109Z,5.70
2018-04-15T08:42:44.673Z,5.30
2018-04-15T08:45:12.396Z,5.40
2018-04-15T08:47:39.976Z,5.47
2018-04-15T08:50:07.754Z,6.33
2018-04-15T08:52:35.493Z,5.93
2018-04-15T08:55:03.309Z,4.93
2018-04-15T08:57:30.921Z,5.73
2018-04-15T08:59:58.647Z,5.27
2018-04-15T09:02:26.465Z,9.17
2018-04-15T09:04:54.074Z,6.17
2018-04-15T09:07:21.650Z,5.47
2018-04-15T09:09:49.388Z,5.07
2018-04-15T09:12:17.001Z,5.60
2018-04-15T09:14:44.600Z,5.33
2018-04-15T09:17:12.160Z,5.27
2018-04-15T09:19:39.724Z,6.07
2018-04-15T09:22:07.317Z,5.80
2018-04-15T09:24:34.909Z,6.27
2018-04-15T09:27:02.472Z,5.20
2018-04-15T09:29:30.092Z,5.80
2018-04-15T09:31:57.697Z,5.43
2018-04-15T09:34:25.291Z,6.40
2018-04-15T09:36:52.865Z,5.53
2018-04-15T09:39:20.440Z,4.90
2018-04-15T09:41:48.004Z,5.70
2018-04-15T09:44:15.605Z,7.07
2018-04-15T09:46:43.388Z,6.10
2018-04-15T09:49:11.209Z,6.17
2018-04-15T09:51:38.763Z,5.23
2018-04-15T09:54:06.539Z,5.50
2018-04-15T09:56:34.121Z,5.50
2018-04-15T09:59:01.759Z,6.23
2018-04-15T10:01:29.412Z,6.50
2018-04-15T10:03:56.983Z,5.57
2018-04-15T10:06:24.548Z,5.50
2018-04-15T10:08:52.349Z,6.07
2018-04-15T10:11:20.165Z,5.63
2018-04-15T10:13:47.884Z,5.13
2018-04-15T10:16:15.703Z,5.80
2018-04-15T10:18:43.261Z,6.33
2018-04-15T10:21:10.829Z,5.60
2018-04-15T10:23:38.376Z,5.77
2018-04-15T10:26:06.175Z,5.70
2018-04-15T10:28:33.755Z,5.37
2018-04-15T10:31:01.332Z,6.43
2018-04-15T10:33:28.919Z,4.90
2018-04-15T10:35:56.647Z,5.10
2018-04-15T10:38:24.467Z,6.60
2018-04-15T10:40:52.039Z,6.47
2018-04-15T10:43:19.589Z,5.63
2018-04-15T10:45:47.322Z,6.00
2018-04-15T10:48:14.884Z,6.17
2018-04-15T10:50:42.561Z,5.67
2018-04-15T10:53:10.276Z,5.53
2018-04-15T10:55:37.844Z,5.77
2018-04-15T10:58:05.427Z,5.13
2018-04-15T11:00:33.027Z,6.20
2018-04-15T11:03:00.851Z,6.20
2018-04-15T11:05:28.409Z,5.87
2018-04-15T11:07:56.186Z,5.83
2018-04-15T11:10:23.753Z,5.50
2018-04-15T11:12:51.364Z,5.30
2018-04-15T11:15:19.139Z,5.57
2018-04-15T11:17:46.705Z,6.27
2018-04-15T11:20:14.324Z,5.53
2018-04-15T11:22:42.176Z,6.07
2018-04-15T11:25:09.911Z,5.43
2018-04-15T11:27:37.495Z,5.30
2018-04-15T11:30:05.116Z,6.10
2018-04-15T11:32:32.718Z,5.67
2018-04-15T11:35:00.294Z,5.83
2018-04-15T11:37:27.938Z,5.97
2018-04-15T11:39:55.490Z,6.60
2018-04-15T11:42:23.237Z,6.13
2018-04-15T11:44:50.827Z,5.70
2018-04-15T11:47:18.435Z,5.60
2018-04-15T11:49:46.043Z,5.23
2018-04-15T11:52:13.601Z,5.33
2018-04-15T11:54:41.220Z,5.83
2018-04-15T11:57:08.780Z,5.80
2018-04-15T11:59:36.332Z,5.13
2018-04-15T12:02:03.971Z,6.53
2018-04-15T12:04:31.663Z,5.87
2018-04-15T12:06:59.238Z,5.83
2018-04-15T12:09:26.804Z,6.47
2018-04-15T12:11:54.408Z,5.40
2018-04-15T12:14:21.977Z,6.23
2018-04-15T12:16:49.796Z,6.43
2018-04-15T12:19:17.351Z,6.57
2018-04-15T12:21:45.123Z,6.67
2018-04-15T12:24:12.943Z,6.73
2018-04-15T12:26:40.550Z,6.67
2018-04-15T12:29:08.168Z,7.73
2018-04-15T12:31:35.897Z,7.57
2018-04-15T12:34:03.460Z,6.83
2018-04-15T12:36:31.030Z,7.40
2018-04-15T12:38:58.595Z,7.00
2018-04-15T12:41:26.369Z,7.73
2018-04-15T12:43:53.929Z,8.50
2018-04-15T12:46:21.536Z,7.07
2018-04-15T12:48:49.096Z,7.50
2018-04-15T12:51:16.811Z,7.80
2018-04-15T12:53:44.394Z,7.20
2018-04-15T12:56:11.949Z,6.47
2018-04-15T12:58:39.799Z,6.30
2018-04-15T13:01:07.348Z,7.10
2018-04-15T13:03:34.988Z,7.13
2018-04-15T13:06:02.752Z,7.97
2018-04-15T13:08:30.302Z,6.73
2018-04-15T13:10:57.910Z,8.13
2018-04-15T13:13:25.489Z,7.10
2018-04-15T13:15:53.321Z,7.53
2018-04-15T13:18:20.882Z,7.90
2018-04-15T13:20:48.495Z,7.73
2018-04-15T13:23:16.038Z,7.03
2018-04-15T13:25:43.621Z,7.03
2018-04-15T13:28:11.188Z,7.60
2018-04-15T13:30:38.929Z,7.20
2018-04-15T13:33:06.492Z,7.33
2018-04-15T13:35:34.044Z,7.00
2018-04-15T13:38:01.669Z,8.03
2018-04-15T13:40:29.401Z,8.57
2018-04-15T13:42:57.119Z,9.40
2018-04-15T13:45:24.938Z,7.80
2018-04-15T13:47:52.524Z,8.00
2018-04-15T13:50:20.101Z,7.63
2018-04-15T13:52:47.656Z,7.33
2018-04-15T13:55:15.307Z,7.00
2018-04-15T13:57:43.028Z,7.50
2018-04-15T14:00:10.584Z,6.20
2018-04-15T14:02:38.364Z,6.57
2018-04-15T14:05:06.085Z,7.77
2018-04-15T14:07:33.660Z,7.67
2018-04-15T14:10:01.208Z,7.07
2018-04-15T14:12:28.916Z,7.97
2018-04-15T14:14:56.481Z,7.97
2018-04-15T14:17:24.072Z,8.07
2018-04-15T14:19:51.640Z,7.83
2018-04-15T14:22:19.228Z,6.97
2018-04-15T14:24:46.815Z,7.07
2018-04-15T14:27:14.367Z,7.93
2018-04-15T14:29:41.977Z,8.03
2018-04-15T14:32:09.529Z,7.33
2018-04-15T14:34:37.087Z,8.10
2018-04-15T14:37:04.668Z,7.47
2018-04-15T14:39:32.223Z,8.00
2018-04-15T14:41:59.803Z,7.10
2018-04-15T14:44:27.568Z,8.10
2018-04-15T14:46:55.189Z,7.10
2018-04-15T14:49:22.761Z,8.20
2018-04-15T14:51:50.522Z,7.30
2018-04-15T14:54:18.090Z,7.50
2018-04-15T14:56:45.859Z,6.80
2018-04-15T14:59:13.445Z,7.30
2018-04-15T15:01:41.045Z,6.50
2018-04-15T15:04:08.692Z,7.70
2018-04-15T15:06:36.413Z,7.10
2018-04-15T15:09:04.052Z,7.43
2018-04-15T15:11:31.620Z,6.97
2018-04-15T15:13:59.191Z,8.37
2018-04-15T15:16:27.003Z,8.10
2018-04-15T15:18:54.546Z,8.50
2018-04-15T15:21:22.141Z,7.43
2018-04-15T15:23:49.748Z,7.13
2018-04-15T15:26:17.447Z,9.07
2018-04-15T15:28:45.031Z,8.20
2018-04-15T15:31:12.593Z,7.90
2018-04-15T15:33:40.234Z,7.90
2018-04-15T15:36:08.049Z,8.70
2018-04-15T15:38:35.660Z,8.63
2018-04-15T15:41:03.347Z,8.77
2018-04-15T15:43:30.904Z,8.37
2018-04-15T15:45:58.469Z,7.87
2018-04-15T15:48:26.033Z,8.00
2018-04-15T15:50:53.856Z,9.00
2018-04-15T15:53:21.448Z,9.83
2018-04-15T15:55:49.073Z,8.70
2018-04-15T15:58:16.688Z,8.57
2018-04-15T16:00:44.259Z,8.43
2018-04-15T16:03:12.045Z,9.27
2018-04-15T16:05:39.609Z,8.53
2018-04-15T16:08:07.172Z,9.00
2018-04-15T16:10:34.728Z,9.40
2018-04-15T16:13:02.353Z,9.40
2018-04-15T16:15:29.925Z,9.63
2018-04-15T16:17:57.490Z,9.60
2018-04-15T16:20:25.054Z,8.83
2018-04-15T16:22:52.618Z,8.93
2018-04-15T16:25:20.406Z,10.70
2018-04-15T16:27:48.225Z,10.13
2018-04-15T16:30:15.943Z,9.90
2018-04-15T16:32:43.763Z,9.90
2018-04-15T16:35:11.324Z,11.53
2018-04-15T16:37:39.059Z,10.13
2018-04-15T16:40:06.737Z,11.23
2018-04-15T16:42:34.332Z,9.53
2018-04-15T16:45:01.913Z,10.87
2018-04-15T16:47:29.628Z,11.23
2018-04-15T16:49:57.273Z,10.63
2018-04-15T16:52:24.837Z,11.13
2018-04-15T16:54:52.464Z,11.00
2018-04-15T16:57:20.049Z,12.03
2018-04-15T16:59:47.779Z,11.07
2018-04-15T17:02:15.353Z,11.07
2018-04-15T17:04:42.923Z,11.40
2018-04-15T17:07:10.713Z,10.23
2018-04-15T17:09:38.289Z,11.43
2018-04-15T17:12:06.151Z,10.73
2018-04-15T17:14:33.709Z,11.47
2018-04-15T17:17:01.488Z,11.93
2018-04-15T17:19:29.305Z,10.10
2018-04-15T17:21:56.869Z,10.50
2018-04-15T17:24:24.475Z,11.03
2018-04-15T17:26:52.042Z,11.43
2018-04-15T17:29:19.684Z,12.27
2018-04-15T17:31:47.453Z,11.13
2018-04-15T17:34:15.017Z,10.80
2018-04-15T17:36:42.617Z,10.87
2018-04-15T17:39:10.190Z,10.13
2018-04-15T17:41:37.768Z,10.37
2018-04-15T17:44:05.340Z,10.80
2018-04-15T17:46:32.952Z,11.20
2018-04-15T17:49:00.513Z,11.97
2018-04-15T17:51:28.340Z,12.10
2018-04-15T17:53:56.045Z,11.23
2018-04-15T17:56:23.659Z,11.50
2018-04-15T17:58:51.429Z,12.53
2018-04-15T18:01:19.211Z,11.27
2018-04-15T18:03:46.824Z,11.87
2018-04-15T18:06:14.548Z,11.53
2018-04-15T18:08:42.109Z,12.27
2018-04-15T18:11:09.843Z,12.53
2018-04-15T18:13:37.407Z,10.63
2018-04-15T18:16:04.996Z,12.27
2018-04-15T18:18:32.719Z,11.00
2018-04-15T18:21:00.359Z,10.60
2018-04-15T18:23:28.175Z,10.37
2018-04-15T18:25:55.762Z,12.07
2018-04-15T18:28:23.610Z,11.40
2018-04-15T18:30:51.179Z,10.77
2018-04-15T18:33:19.044Z,11.10
2018-04-15T18:35:46.736Z,11.43
2018-04-15T18:38:14.300Z,12.13
2018-04-15T18:40:41.872Z,11.00
2018-04-15T18:43:09.587Z,11.57
2018-04-15T18:45:37.248Z,11.87
2018-04-15T18:48:04.819Z,11.63
2018-04-15T18:50:32.467Z,12.37
2018-04-15T18:53:00.045Z,11.23
2018-04-15T18:55:27.604Z,11.07
2018-04-15T18:57:55.429Z,11.17
2018-04-15T19:00:23.248Z,11.27
2018-04-15T19:02:50.802Z,12.20
2018-04-15T19:05:18.695Z,12.07
2018-04-15T19:07:46.503Z,11.50
2018-04-15T19:10:14.222Z,12.00
2018-04-15T19:12:41.954Z,11.27
2018-04-15T19:15:09.506Z,12.37
2018-04-15T19:17:37.276Z,11.70
2018-04-15T19:20:04.883Z,12.17
2018-04-15T19:22:32.453Z,12.10
2018-04-15T19:25:00.069Z,11.67
2018-04-15T19:27:27.848Z,12.40
2018-04-15T19:29:55.408Z,11.60
2018-04-15T19:32:22.981Z,11.70
2018-04-15T19:34:50.702Z,11.63
2018-04-15T19:37:18.520Z,11.37
2018-04-15T19:39:46.076Z,11.97
2018-04-15T19:42:13.693Z,12.17
2018-04-15T19:44:41.256Z,11.57
2018-04-15T19:47:08.978Z,11.70
2018-04-15T19:49:36.548Z,12.30
2018-04-15T19:52:04.209Z,13.20
2018-04-15T19:54:31.802Z,12.90
2018-04-15T19:56:59.365Z,13.20
2018-04-15T19:59:26.968Z,12.67
2018-04-15T20:01:54.529Z,13.57
2018-04-15T20:04:22.105Z,13.17
2018-04-15T20:06:49.676Z,13.60
2018-04-15T20:09:17.247Z,13.20
2018-04-15T20:11:44.820Z,13.23
2018-04-15T20:14:12.452Z,14.13
2018-04-15T20:16:40.297Z,14.00
2018-04-15T20:19:08.041Z,13.37
2018-04-15T20:21:35.637Z,14.47
2018-04-15T20:24:03.236Z,14.10
2018-04-15T20:26:30.796Z,14.87
2018-04-15T20:28:58.413Z,14.67
2018-04-15T20:31:25.949Z,13.57
2018-04-15T20:33:53.504Z,14.53
2018-04-15T20:36:21.076Z,14.40
2018-04-15T20:38:48.639Z,14.30
2018-04-15T20:41:16.280Z,14.73
2018-04-15T20:43:43.862Z,15.10
2018-04-15T20:46:11.424Z,15.60
2018-04-15T20:48:39.001Z,14.77
2018-04-15T20:51:06.733Z,13.70
2018-04-15T20:53:34.401Z,14.40
2018-04-15T20:56:02.198Z,14.47
2018-04-15T20:58:29.768Z,14.27
2018-04-15T21:00:57.423Z,14.43
2018-04-15T21:03:25.024Z,14.10
2018-04-15T21:05:52.677Z,14.53
2018-04-15T21:08:20.257Z,13.27
2018-04-15T21:10:47.963Z,13.33
2018-04-15T21:13:15.680Z,13.73
2018-04-15T21:15:43.397Z,13.77
2018-04-15T21:18:11.014Z,14.30
2018-04-15T21:20:38.755Z,14.20
2018-04-15T21:23:06.338Z,13.77
2018-04-15T21:25:33.912Z,13.03
2018-04-15T21:28:01.730Z,13.27
2018-04-15T21:30:29.551Z,12.73
2018-04-15T21:32:57.267Z,13.17
2018-04-15T21:35:24.828Z,12.80
2018-04-15T21:37:52.518Z,12.93
2018-04-15T21:40:20.200Z,12.73
2018-04-15T21:42:47.820Z,12.50
2018-04-15T21:45:15.524Z,12.33
2018-04-15T21:47:43.120Z,12.33
2018-04-15T21:50:10.855Z,12.00
2018-04-15T21:52:38.441Z,12.20
2018-04-15T21:55:06.332Z,11.93
2018-04-15T21:57:33.900Z,11.23
2018-04-15T22:00:01.767Z,11.60
2018-04-15T22:02:29.392Z,11.23
2018-04-15T22:04:56.997Z,12.23
2018-04-15T22:07:24.582Z,11.23
2018-04-15T22:09:52.139Z,11.23
2018-04-15T22:12:19.957Z,11.70
2018-04-15T22:14:47.572Z,11.57
2018-04-15T22:17:15.104Z,11.17
2018-04-15T22:19:42.912Z,11.27
2018-04-15T22:22:10.628Z,11.50
2018-04-15T22:24:38.248Z,11.47
2018-04-15T22:27:06.067Z,10.40
2018-04-15T22:29:33.633Z,11.33
2018-04-15T22:32:01.285Z,10.83
2018-04-15T22:34:28.836Z,10.53
2018-04-15T22:36:56.412Z,10.80
2018-04-15T22:39:24.052Z,10.53
2018-04-15T22:41:51.602Z,10.80
2018-04-15T22:44:19.169Z,11.33
2018-04-15T22:46:46.734Z,10.30
2018-04-15T22:49:19.872Z,9.97
2018-04-15T22:51:47.450Z,9.50
2018-04-15T22:54:15.048Z,9.60
2018-04-15T22:56:43.448Z,8.90
2018-04-15T22:59:11.028Z,9.87
2018-04-15T23:01:38.839Z,8.73
2018-04-15T23:04:06.401Z,9.33
2018-04-15T23:06:34.175Z,9.53
2018-04-15T23:09:01.741Z,8.43
2018-04-15T23:11:29.293Z,9.90
2018-04-15T23:13:57.029Z,9.73
2018-04-15T23:16:24.835Z,9.47
2018-04-15T23:18:52.666Z,8.93
2018-04-15T23:21:20.241Z,9.93
2018-04-15T23:23:47.801Z,8.80
2018-04-15T23:26:15.369Z,8.57
2018-04-15T23:28:42.933Z,8.67
2018-04-15T23:31:10.494Z,8.80
2018-04-15T23:33:38.067Z,8.40
2018-04-15T23:36:05.661Z,8.80
2018-04-15T23:38:33.296Z,8.43
2018-04-15T23:41:00.858Z,7.83
2018-04-15T23:43:28.430Z,8.10
2018-04-15T23:45:55.985Z,8.97
2018-04-15T23:48:23.556Z,8.50
2018-04-15T23:50:51.129Z,8.43
2018-04-15T23:53:18.693Z,9.00
2018-04-15T23:55:46.271Z,8.37
2018-04-15T23:58:13.879Z,8.20
